sensor_id;sensor_type;location;lat;lon;timestamp;pressure;altitude;pressure_sealevel;temperature;humidity
58955;BME280;45815;52.334;5.024;2023-02-21T00:01:13;102054.00;;;9.06;100.00
58955;BME280;45815;52.334;5.024;2023-02-21T00:03:57;102046.81;;;9.02;100.00
58955;BME280;45815;52.334;5.024;2023-02-21T00:06:43;102058.41;;;9.07;100.00
58955;BME280;45815;52.334;5.024;2023-02-21T00:09:27;102051.22;;;9.03;100.00
58955;BME280;45815;52.334;5.024;2023-02-21T00:12:11;102064.06;;;8.97;100.00
58955;BME280;45815;52.334;5.024;2023-02-21T00:14:54;102054.47;;;8.98;100.00
58955;BME280;45815;52.334;5.024;2023-02-21T00:17:38;102057.78;;;8.94;100.00
58955;BME280;45815;52.334;5.024;2023-02-21T00:20:22;102044.47;;;8.89;100.00
58955;BME280;45815;52.334;5.024;2023-02-21T00:23:06;102050.06;;;8.97;100.00
58955;BME280;45815;52.334;5.024;2023-02-21T00:25:50;102052.06;;;9.02;100.00
58955;BME280;45815;52.334;5.024;2023-02-21T00:28:34;102058.94;;;9.00;100.00
58955;BME280;45815;52.334;5.024;2023-02-21T00:31:18;102057.19;;;8.99;100.00
58955;BME280;45815;52.334;5.024;2023-02-21T00:34:02;102060.88;;;9.04;100.00
58955;BME280;45815;52.334;5.024;2023-02-21T00:36:46;102066.94;;;9.03;100.00
58955;BME280;45815;52.334;5.024;2023-02-21T00:39:30;102067.00;;;9.05;100.00
58955;BME280;45815;52.334;5.024;2023-02-21T00:42:14;102070.41;;;9.02;100.00
58955;BME280;45815;52.334;5.024;2023-02-21T00:44:58;102069.72;;;9.06;100.00
58955;BME280;45815;52.334;5.024;2023-02-21T00:47:42;102066.13;;;9.04;100.00
58955;BME280;45815;52.334;5.024;2023-02-21T00:50:26;102069.75;;;9.08;100.00
58955;BME280;45815;52.334;5.024;2023-02-21T00:53:09;102066.13;;;9.04;100.00
58955;BME280;45815;52.334;5.024;2023-02-21T00:55:53;102052.06;;;9.02;100.00
58955;BME280;45815;52.334;5.024;2023-02-21T00:58:37;102048.59;;;9.03;100.00
58955;BME280;45815;52.334;5.024;2023-02-21T01:01:20;102041.59;;;9.02;100.00
58955;BME280;45815;52.334;5.024;2023-02-21T01:04:04;102046.69;;;8.99;100.00
58955;BME280;45815;52.334;5.024;2023-02-21T01:06:50;102041.31;;;8.96;100.00
58955;BME280;45815;52.334;5.024;2023-02-21T01:09:34;102042.28;;;8.98;100.00
58955;BME280;45815;52.334;5.024;2023-02-21T01:12:18;102043.78;;;8.93;100.00
58955;BME280;45815;52.334;5.024;2023-02-21T01:15:03;102037.59;;;8.91;100.00
58955;BME280;45815;52.334;5.024;2023-02-21T01:17:47;102034.09;;;8.91;100.00
58955;BME280;45815;52.334;5.024;2023-02-21T01:20:30;102019.91;;;8.85;100.00
58955;BME280;45815;52.334;5.024;2023-02-21T01:23:14;102037.72;;;8.94;100.00
58955;BME280;45815;52.334;5.024;2023-02-21T01:25:58;102035.19;;;8.96;100.00
58955;BME280;45815;52.334;5.024;2023-02-21T01:28:41;102025.59;;;8.96;100.00
58955;BME280;45815;52.334;5.024;2023-02-21T01:31:26;102035.50;;;9.03;100.00
58955;BME280;45815;52.334;5.024;2023-02-21T01:34:11;102030.81;;;8.96;100.00
58955;BME280;45815;52.334;5.024;2023-02-21T01:36:55;102031.00;;;8.99;100.00
58955;BME280;45815;52.334;5.024;2023-02-21T01:39:39;102011.28;;;8.88;100.00
58955;BME280;45815;52.334;5.024;2023-02-21T01:42:23;102021.19;;;8.95;100.00
58955;BME280;45815;52.334;5.024;2023-02-21T01:48:05;102031.47;;;8.91;100.00
58955;BME280;45815;52.334;5.024;2023-02-21T01:50:51;102017.31;;;8.87;100.00
58955;BME280;45815;52.334;5.024;2023-02-21T01:53:35;102013.22;;;8.92;100.00
58955;BME280;45815;52.334;5.024;2023-02-21T01:56:20;102015.00;;;8.93;100.00
58955;BME280;45815;52.334;5.024;2023-02-21T01:59:04;102019.19;;;8.90;100.00
58955;BME280;45815;52.334;5.024;2023-02-21T02:01:52;102017.47;;;8.90;100.00
58955;BME280;45815;52.334;5.024;2023-02-21T02:04:39;102016.50;;;8.88;100.00
58955;BME280;45815;52.334;5.024;2023-02-21T02:07:24;102017.19;;;8.84;100.00
58955;BME280;45815;52.334;5.024;2023-02-21T02:10:10;102017.19;;;8.84;100.00
58955;BME280;45815;52.334;5.024;2023-02-21T02:34:52;101996.13;;;8.81;100.00
58955;BME280;45815;52.334;5.024;2023-02-21T02:40:15;102003.13;;;8.82;100.00
58955;BME280;45815;52.334;5.024;2023-02-21T02:43:02;102010.19;;;8.83;100.00
58955;BME280;45815;52.334;5.024;2023-02-21T02:45:53;102008.16;;;8.77;100.00
58955;BME280;45815;52.334;5.024;2023-02-21T02:50:50;102000.81;;;8.88;100.00
58955;BME280;45815;52.334;5.024;2023-02-21T02:53:21;102005.91;;;8.85;100.00
58955;BME280;45815;52.334;5.024;2023-02-21T02:58:21;102006.59;;;8.81;100.00
58955;BME280;45815;52.334;5.024;2023-02-21T03:00:56;101997.84;;;8.80;100.00
58955;BME280;45815;52.334;5.024;2023-02-21T03:09:08;102002.16;;;8.80;100.00
58955;BME280;45815;52.334;5.024;2023-02-21T03:11:42;102000.38;;;8.79;100.00
58955;BME280;45815;52.334;5.024;2023-02-21T03:14:15;102012.63;;;8.80;100.00
58955;BME280;45815;52.334;5.024;2023-02-21T03:16:50;102008.31;;;8.80;100.00
58955;BME280;45815;52.334;5.024;2023-02-21T03:19:32;102005.75;;;8.82;100.00
58955;BME280;45815;52.334;5.024;2023-02-21T03:22:01;102005.00;;;8.84;100.00
58955;BME280;45815;52.334;5.024;2023-02-21T03:24:30;101993.63;;;8.84;100.00
58955;BME280;45815;52.334;5.024;2023-02-21T03:26:59;102002.38;;;8.84;100.00
58955;BME280;45815;52.334;5.024;2023-02-21T03:30:06;101991.13;;;8.87;100.00
58955;BME280;45815;52.334;5.024;2023-02-21T03:32:36;101989.06;;;8.80;100.00
58955;BME280;45815;52.334;5.024;2023-02-21T03:35:03;101985.44;;;8.76;100.00
58955;BME280;45815;52.334;5.024;2023-02-21T03:37:37;101996.25;;;8.84;100.00
58955;BME280;45815;52.334;5.024;2023-02-21T03:40:10;101989.06;;;8.80;100.00
58955;BME280;45815;52.334;5.024;2023-02-21T03:42:36;101983.16;;;8.84;100.00
58955;BME280;45815;52.334;5.024;2023-02-21T03:45:02;101981.38;;;8.83;100.00
58955;BME280;45815;52.334;5.024;2023-02-21T03:47:27;101971.50;;;8.77;100.00
58955;BME280;45815;52.334;5.024;2023-02-21T03:49:53;101979.72;;;8.85;100.00
58955;BME280;45815;52.334;5.024;2023-02-21T03:52:19;101978.59;;;8.80;100.00
58955;BME280;45815;52.334;5.024;2023-02-21T03:54:44;101976.06;;;8.81;100.00
58955;BME280;45815;52.334;5.024;2023-02-21T03:57:14;101989.16;;;8.81;100.00
58955;BME280;45815;52.334;5.024;2023-02-21T03:59:42;101985.69;;;8.82;100.00
58955;BME280;45815;52.334;5.024;2023-02-21T04:02:08;101981.50;;;8.86;100.00
58955;BME280;45815;52.334;5.024;2023-02-21T04:04:34;101980.53;;;8.84;100.00
58955;BME280;45815;52.334;5.024;2023-02-21T04:07:08;101976.75;;;8.77;100.00
58955;BME280;45815;52.334;5.024;2023-02-21T04:09:35;101986.47;;;8.80;100.00
58955;BME280;45815;52.334;5.024;2023-02-21T04:12:04;101986.34;;;8.77;100.00
58955;BME280;45815;52.334;5.024;2023-02-21T04:14:31;101974.78;;;8.72;100.00
58955;BME280;45815;52.334;5.024;2023-02-21T04:16:57;101987.50;;;8.83;100.00
58955;BME280;45815;52.334;5.024;2023-02-21T04:19:22;101981.09;;;8.77;100.00
58955;BME280;45815;52.334;5.024;2023-02-21T04:21:48;101970.72;;;8.78;100.00
58955;BME280;45815;52.334;5.024;2023-02-21T04:24:14;101970.75;;;8.80;100.00
58955;BME280;45815;52.334;5.024;2023-02-21T04:26:40;101979.44;;;8.79;100.00
58955;BME280;45815;52.334;5.024;2023-02-21T04:29:06;101979.31;;;8.76;100.00
58955;BME280;45815;52.334;5.024;2023-02-21T04:31:32;101982.00;;;8.77;100.00
58955;BME280;45815;52.334;5.024;2023-02-21T04:34:00;101985.78;;;8.84;100.00
58955;BME280;45815;52.334;5.024;2023-02-21T04:36:26;101985.97;;;8.88;100.00
58955;BME280;45815;52.334;5.024;2023-02-21T04:38:52;101984.75;;;8.80;100.00
58955;BME280;45815;52.334;5.024;2023-02-21T04:41:18;101983.16;;;8.84;100.00
58955;BME280;45815;52.334;5.024;2023-02-21T04:43:44;101983.28;;;8.87;100.00
58955;BME280;45815;52.334;5.024;2023-02-21T04:46:10;101970.19;;;8.87;100.00
58955;BME280;45815;52.334;5.024;2023-02-21T04:48:41;101979.97;;;8.91;100.00
58955;BME280;45815;52.334;5.024;2023-02-21T04:51:06;101983.56;;;8.93;100.00
58955;BME280;45815;52.334;5.024;2023-02-21T04:53:32;101991.44;;;8.93;100.00
58955;BME280;45815;52.334;5.024;2023-02-21T04:55:57;101987.28;;;8.98;100.00
58955;BME280;45815;52.334;5.024;2023-02-21T04:58:22;101980.25;;;8.97;100.00
58955;BME280;45815;52.334;5.024;2023-02-21T05:00:48;101978.34;;;8.93;100.00
58955;BME280;45815;52.334;5.024;2023-02-21T05:03:13;101975.84;;;8.96;100.00
58955;BME280;45815;52.334;5.024;2023-02-21T05:05:39;101970.56;;;8.95;100.00
58955;BME280;45815;52.334;5.024;2023-02-21T05:08:04;101981.91;;;8.95;100.00
58955;BME280;45815;52.334;5.024;2023-02-21T05:10:29;101976.59;;;8.94;100.00
58955;BME280;45815;52.334;5.024;2023-02-21T05:12:55;101984.41;;;8.92;100.00
58955;BME280;45815;52.334;5.024;2023-02-21T05:15:20;101981.78;;;8.92;100.00
58955;BME280;45815;52.334;5.024;2023-02-21T05:17:46;101975.59;;;8.90;100.00
58955;BME280;45815;52.334;5.024;2023-02-21T05:20:11;101974.75;;;8.91;100.00
58955;BME280;45815;52.334;5.024;2023-02-21T05:22:38;101960.28;;;8.80;100.00
58955;BME280;45815;52.334;5.024;2023-02-21T05:25:15;101975.72;;;8.93;100.00
58955;BME280;45815;52.334;5.024;2023-02-21T05:27:41;101987.84;;;8.91;100.00
58955;BME280;45815;52.334;5.024;2023-02-21T05:30:07;101993.75;;;8.87;100.00
58955;BME280;45815;52.334;5.024;2023-02-21T05:32:33;101994.72;;;8.89;100.00
58955;BME280;45815;52.334;5.024;2023-02-21T05:34:58;101992.19;;;8.91;100.00
58955;BME280;45815;52.334;5.024;2023-02-21T05:37:24;101983.44;;;8.90;100.00
58955;BME280;45815;52.334;5.024;2023-02-21T05:39:49;101991.00;;;8.84;100.00
58955;BME280;45815;52.334;5.024;2023-02-21T05:42:15;101990.22;;;8.85;100.00
58955;BME280;45815;52.334;5.024;2023-02-21T05:44:45;101989.91;;;8.79;100.00
58955;BME280;45815;52.334;5.024;2023-02-21T05:47:13;101995.44;;;8.85;100.00
58955;BME280;45815;52.334;5.024;2023-02-21T05:49:39;101996.25;;;8.84;100.00
58955;BME280;45815;52.334;5.024;2023-02-21T05:52:05;101992.81;;;8.85;100.00
58955;BME280;45815;52.334;5.024;2023-02-21T05:54:30;101990.81;;;8.79;100.00
58955;BME280;45815;52.334;5.024;2023-02-21T05:56:56;101982.75;;;8.75;100.00
58955;BME280;45815;52.334;5.024;2023-02-21T05:59:21;101986.47;;;8.80;100.00
58955;BME280;45815;52.334;5.024;2023-02-21T06:01:48;101992.81;;;8.85;100.00
58955;BME280;45815;52.334;5.024;2023-02-21T06:04:14;101990.34;;;8.88;100.00
58955;BME280;45815;52.334;5.024;2023-02-21T06:06:40;101990.59;;;8.94;100.00
58955;BME280;45815;52.334;5.024;2023-02-21T06:09:06;101976.41;;;8.89;100.00
58955;BME280;45815;52.334;5.024;2023-02-21T06:11:33;101990.88;;;9.00;100.00
58955;BME280;45815;52.334;5.024;2023-02-21T06:14:01;101997.00;;;9.01;100.00
58955;BME280;45815;52.334;5.024;2023-02-21T06:16:36;102001.22;;;8.97;100.00
58955;BME280;45815;52.334;5.024;2023-02-21T06:19:03;102001.25;;;8.99;100.00
58955;BME280;45815;52.334;5.024;2023-02-21T06:21:30;101991.84;;;9.02;100.00
58955;BME280;45815;52.334;5.024;2023-02-21T06:23:56;101996.38;;;9.06;100.00
58955;BME280;45815;52.334;5.024;2023-02-21T06:26:21;102000.56;;;9.03;100.00
58955;BME280;45815;52.334;5.024;2023-02-21T06:28:47;101994.44;;;9.02;100.00
58955;BME280;45815;52.334;5.024;2023-02-21T06:31:13;101998.16;;;9.07;100.00
58955;BME280;45815;52.334;5.024;2023-02-21T06:33:38;101999.97;;;9.08;100.00
58955;BME280;45815;52.334;5.024;2023-02-21T06:36:09;101992.91;;;9.07;100.00
58955;BME280;45815;52.334;5.024;2023-02-21T06:38:39;102006.91;;;9.08;100.00
58955;BME280;45815;52.334;5.024;2023-02-21T06:41:06;101999.13;;;9.09;100.00
58955;BME280;45815;52.334;5.024;2023-02-21T06:43:32;102009.81;;;9.14;100.00
58955;BME280;45815;52.334;5.024;2023-02-21T06:45:58;102000.28;;;9.16;100.00
58955;BME280;45815;52.334;5.024;2023-02-21T06:48:23;102007.25;;;9.16;100.00
58955;BME280;45815;52.334;5.024;2023-02-21T06:50:49;102006.34;;;9.15;100.00
58955;BME280;45815;52.334;5.024;2023-02-21T06:53:14;102007.31;;;9.17;100.00
58955;BME280;45815;52.334;5.024;2023-02-21T06:55:40;102009.03;;;9.17;100.00
58955;BME280;45815;52.334;5.024;2023-02-21T06:58:05;102003.13;;;9.21;100.00
58955;BME280;45815;52.334;5.024;2023-02-21T07:00:30;102000.63;;;9.24;100.00
58955;BME280;45815;52.334;5.024;2023-02-21T07:02:56;101998.84;;;9.23;100.00
58955;BME280;45815;52.334;5.024;2023-02-21T07:05:21;102001.66;;;9.27;100.00
58955;BME280;45815;52.334;5.024;2023-02-21T07:07:47;102007.59;;;9.23;100.00
58955;BME280;45815;52.334;5.024;2023-02-21T07:10:12;101996.81;;;9.17;100.00
58955;BME280;45815;52.334;5.024;2023-02-21T07:12:38;101993.44;;;9.20;100.00
58955;BME280;45815;52.334;5.024;2023-02-21T07:15:05;102005.84;;;9.24;100.00
58955;BME280;45815;52.334;5.024;2023-02-21T07:17:30;102004.66;;;9.16;100.00
58955;BME280;45815;52.334;5.024;2023-02-21T07:19:56;101996.03;;;9.18;100.00
58955;BME280;45815;52.334;5.024;2023-02-21T07:22:21;102000.50;;;9.21;100.00
58955;BME280;45815;52.334;5.024;2023-02-21T07:24:52;102007.50;;;9.22;100.00
58955;BME280;45815;52.334;5.024;2023-02-21T07:27:18;102005.72;;;9.21;100.00
58955;BME280;45815;52.334;5.024;2023-02-21T07:29:46;102000.63;;;9.24;100.00
58955;BME280;45815;52.334;5.024;2023-02-21T07:32:12;101995.38;;;9.24;100.00
58955;BME280;45815;52.334;5.024;2023-02-21T07:34:38;102007.59;;;9.23;100.00
58955;BME280;45815;52.334;5.024;2023-02-21T07:37:03;102011.00;;;9.22;100.00
58955;BME280;45815;52.334;5.024;2023-02-21T07:39:28;102004.06;;;9.23;100.00
58955;BME280;45815;52.334;5.024;2023-02-21T07:41:54;102002.84;;;9.15;100.00
58955;BME280;45815;52.334;5.024;2023-02-21T07:44:27;102003.78;;;9.17;100.00
58955;BME280;45815;52.334;5.024;2023-02-21T07:46:55;102006.50;;;9.18;100.00
58955;BME280;45815;52.334;5.024;2023-02-21T07:49:20;102010.97;;;9.21;100.00
58955;BME280;45815;52.334;5.024;2023-02-21T07:51:46;102010.19;;;9.23;100.00
58955;BME280;45815;52.334;5.024;2023-02-21T07:54:11;102009.31;;;9.23;100.00
58955;BME280;45815;52.334;5.024;2023-02-21T07:56:46;102001.19;;;9.17;100.00
58955;BME280;45815;52.334;5.024;2023-02-21T07:59:13;102007.50;;;9.22;100.00
58955;BME280;45815;52.334;5.024;2023-02-21T08:01:38;102000.63;;;9.24;100.00
58955;BME280;45815;52.334;5.024;2023-02-21T08:04:04;102006.91;;;9.27;100.00
58955;BME280;45815;52.334;5.024;2023-02-21T08:06:30;102004.41;;;9.30;100.00
58955;BME280;45815;52.334;5.024;2023-02-21T08:08:57;102008.88;;;9.33;100.00
58955;BME280;45815;52.334;5.024;2023-02-21T08:11:22;102011.38;;;9.30;100.00
58955;BME280;45815;52.334;5.024;2023-02-21T08:13:48;101998.88;;;9.24;100.00
58955;BME280;45815;52.334;5.024;2023-02-21T08:16:13;102006.06;;;9.28;100.00
58955;BME280;45815;52.334;5.024;2023-02-21T08:18:39;102009.56;;;9.29;100.00
58955;BME280;45815;52.334;5.024;2023-02-21T08:21:08;102011.38;;;9.30;100.00
58955;BME280;45815;52.334;5.024;2023-02-21T08:23:34;102011.38;;;9.30;100.00
58955;BME280;45815;52.334;5.024;2023-02-21T08:25:59;102021.16;;;9.34;100.00
58955;BME280;45815;52.334;5.024;2023-02-21T08:28:24;102016.03;;;9.37;100.00
58955;BME280;45815;52.334;5.024;2023-02-21T08:30:50;102013.22;;;9.33;100.00
58955;BME280;45815;52.334;5.024;2023-02-21T08:33:15;102010.81;;;9.37;100.00
58955;BME280;45815;52.334;5.024;2023-02-21T08:35:41;102008.31;;;9.40;100.00
58955;BME280;45815;52.334;5.024;2023-02-21T08:38:06;102010.09;;;9.41;100.00
58955;BME280;45815;52.334;5.024;2023-02-21T08:40:32;102012.84;;;9.44;100.00
58955;BME280;45815;52.334;5.024;2023-02-21T08:42:58;102016.44;;;9.46;100.00
58955;BME280;45815;52.334;5.024;2023-02-21T08:45:26;102009.94;;;9.38;100.00
58955;BME280;45815;52.334;5.024;2023-02-21T08:47:52;102010.31;;;9.46;100.00
58955;BME280;45815;52.334;5.024;2023-02-21T08:50:19;102010.34;;;9.47;100.00
58955;BME280;45815;52.334;5.024;2023-02-21T08:52:46;102010.34;;;9.47;100.00
58955;BME280;45815;52.334;5.024;2023-02-21T08:55:12;102010.22;;;9.44;100.00
58955;BME280;45815;52.334;5.024;2023-02-21T08:57:37;102008.69;;;9.49;100.00
58955;BME280;45815;52.334;5.024;2023-02-21T09:00:05;102002.47;;;9.47;100.00
58955;BME280;45815;52.334;5.024;2023-02-21T09:02:35;101999.25;;;9.53;100.00
58955;BME280;45815;52.334;5.024;2023-02-21T09:05:08;102008.97;;;9.56;100.00
58955;BME280;45815;52.334;5.024;2023-02-21T09:07:34;101996.56;;;9.51;100.00
58955;BME280;45815;52.334;5.024;2023-02-21T09:10:00;101996.75;;;9.56;100.00
58955;BME280;45815;52.334;5.024;2023-02-21T09:12:25;102005.50;;;9.57;100.00
58955;BME280;45815;52.334;5.024;2023-02-21T09:14:51;101994.19;;;9.58;100.00
58955;BME280;45815;52.334;5.024;2023-02-21T09:17:16;101991.81;;;9.64;100.00
58955;BME280;45815;52.334;5.024;2023-02-21T09:19:42;101985.56;;;9.60;100.00
58955;BME280;45815;52.334;5.024;2023-02-21T09:22:09;101990.16;;;9.66;100.00
58955;BME280;45815;52.334;5.024;2023-02-21T09:24:35;101988.41;;;9.66;100.00
58955;BME280;45815;52.334;5.024;2023-02-21T09:27:01;101985.88;;;9.68;100.00
58955;BME280;45815;52.334;5.024;2023-02-21T09:29:32;101987.78;;;9.72;100.00
58955;BME280;45815;52.334;5.024;2023-02-21T09:32:01;101974.31;;;9.63;100.00
58955;BME280;45815;52.334;5.024;2023-02-21T09:34:28;101965.38;;;9.58;100.00
58955;BME280;45815;52.334;5.024;2023-02-21T09:36:54;101984.22;;;9.70;100.00
58955;BME280;45815;52.334;5.024;2023-02-21T09:39:20;101970.22;;;9.69;100.00
58955;BME280;45815;52.334;5.024;2023-02-21T09:41:47;101971.72;;;9.64;100.00
58955;BME280;45815;52.334;5.024;2023-02-21T09:44:19;101973.66;;;9.68;100.00
58955;BME280;45815;52.334;5.024;2023-02-21T09:46:50;101953.44;;;9.66;100.00
58955;BME280;45815;52.334;5.024;2023-02-21T09:49:25;101962.97;;;9.64;100.00
58955;BME280;45815;52.334;5.024;2023-02-21T09:51:53;101968.16;;;9.83;100.00
58955;BME280;45815;52.334;5.024;2023-02-21T09:54:30;101960.50;;;9.89;100.00
58955;BME280;45815;52.334;5.024;2023-02-21T09:57:00;101959.91;;;9.97;100.00
58955;BME280;45815;52.334;5.024;2023-02-21T09:59:25;101958.25;;;9.99;100.00
58955;BME280;45815;52.334;5.024;2023-02-21T10:07:50;101955.03;;;10.06;100.00
58955;BME280;45815;52.334;5.024;2023-02-21T10:10:38;101962.09;;;10.07;100.00
58955;BME280;45815;52.334;5.024;2023-02-21T10:13:11;101950.16;;;10.15;100.00
58955;BME280;45815;52.334;5.024;2023-02-21T10:20:45;101938.59;;;10.10;100.00
58955;BME280;45815;52.334;5.024;2023-02-21T10:23:54;101958.44;;;10.03;100.00
58955;BME280;45815;52.334;5.024;2023-02-21T10:26:05;101952.84;;;10.17;100.00
58955;BME280;45815;52.334;5.024;2023-02-21T10:28:34;101955.63;;;10.21;100.00
58955;BME280;45815;52.334;5.024;2023-02-21T10:31:03;101954.69;;;10.19;100.00
58955;BME280;45815;52.334;5.024;2023-02-21T10:33:31;101962.56;;;10.19;100.00
58955;BME280;45815;52.334;5.024;2023-02-21T10:35:58;101962.78;;;10.25;100.00
58955;BME280;45815;52.334;5.024;2023-02-21T10:38:25;101956.78;;;10.28;100.00
58955;BME280;45815;52.334;5.024;2023-02-21T10:40:59;101964.56;;;10.26;100.00
58955;BME280;45815;52.334;5.024;2023-02-21T10:43:40;101959.31;;;10.26;100.00
58955;BME280;45815;52.334;5.024;2023-02-21T10:46:22;101955.97;;;10.29;100.00
58955;BME280;45815;52.334;5.024;2023-02-21T10:49:03;101957.81;;;10.31;100.00
58955;BME280;45815;52.334;5.024;2023-02-21T10:51:37;101955.28;;;10.34;100.00
58955;BME280;45815;52.334;5.024;2023-02-21T10:54:24;101958.47;;;10.27;100.00
58955;BME280;45815;52.334;5.024;2023-02-21T10:56:51;101956.13;;;10.33;100.00
58955;BME280;45815;52.334;5.024;2023-02-21T10:59:34;101956.25;;;10.37;100.00
58955;BME280;45815;52.334;5.024;2023-02-21T11:02:03;101956.41;;;10.41;100.00
58955;BME280;45815;52.334;5.024;2023-02-21T11:04:47;101958.16;;;10.41;100.00
58955;BME280;45815;52.334;5.024;2023-02-21T11:07:13;101954.75;;;10.43;100.00
58955;BME280;45815;52.334;5.024;2023-02-21T11:09:44;101953.78;;;10.41;100.00
58955;BME280;45815;52.334;5.024;2023-02-21T11:15:03;101950.88;;;10.33;100.00
58955;BME280;45815;52.334;5.024;2023-02-21T11:17:30;101950.88;;;10.33;100.00
58955;BME280;45815;52.334;5.024;2023-02-21T11:20:17;101957.69;;;10.28;100.00
58955;BME280;45815;52.334;5.024;2023-02-21T11:22:45;101959.72;;;10.35;100.00
58955;BME280;45815;52.334;5.024;2023-02-21T11:27:37;101953.50;;;10.33;100.00
58955;BME280;45815;52.334;5.024;2023-02-21T11:30:16;101955.25;;;10.33;100.00
58955;BME280;45815;52.334;5.024;2023-02-21T11:32:48;101950.09;;;10.36;100.00
58955;BME280;45815;52.334;5.024;2023-02-21T11:45:36;101939.50;;;10.33;100.00
58955;BME280;45815;52.334;5.024;2023-02-21T11:48:05;101939.31;;;10.28;100.00
58955;BME280;45815;52.334;5.024;2023-02-21T11:50:38;101938.22;;;10.23;100.00
58955;BME280;45815;52.334;5.024;2023-02-21T11:53:24;101930.03;;;10.15;100.00
58955;BME280;45815;52.334;5.024;2023-02-21T11:56:03;101932.72;;;10.17;100.00
58955;BME280;45815;52.334;5.024;2023-02-21T11:58:38;101932.81;;;10.19;100.00
58955;BME280;45815;52.334;5.024;2023-02-21T12:01:11;101933.81;;;10.22;100.00
58955;BME280;45815;52.334;5.024;2023-02-21T12:03:50;101924.19;;;10.23;100.00
58955;BME280;45815;52.334;5.024;2023-02-21T12:08:47;101924.38;;;10.27;100.00
58955;BME280;45815;52.334;5.024;2023-02-21T12:11:26;101918.06;;;10.22;100.00
58955;BME280;45815;52.334;5.024;2023-02-21T12:16:50;101929.41;;;10.21;100.00
58955;BME280;45815;52.334;5.024;2023-02-21T12:24:55;101913.41;;;10.15;100.00
58955;BME280;45815;52.334;5.024;2023-02-21T12:33:00;101917.34;;;10.26;100.00
58955;BME280;45815;52.334;5.024;2023-02-21T12:35:49;101913.25;;;10.33;100.00
58955;BME280;45815;52.334;5.024;2023-02-21T12:49:46;101913.31;;;10.12;100.00
58955;BME280;45815;52.334;5.024;2023-02-21T12:55:38;101899.13;;;10.07;100.00
58955;BME280;45815;52.334;5.024;2023-02-21T13:00:40;101905.47;;;10.13;100.00
58955;BME280;45815;52.334;5.024;2023-02-21T13:05:47;101905.66;;;10.18;100.00
58955;BME280;45815;52.334;5.024;2023-02-21T13:08:28;101904.72;;;10.16;100.00
58955;BME280;45815;52.334;5.024;2023-02-21T13:11:10;101905.53;;;10.15;100.00
58955;BME280;45815;52.334;5.024;2023-02-21T13:13:37;101902.03;;;10.14;100.00
58955;BME280;45815;52.334;5.024;2023-02-21T13:16:05;101902.03;;;10.14;100.00
58955;BME280;45815;52.334;5.024;2023-02-21T13:18:38;101894.34;;;10.19;100.00
58955;BME280;45815;52.334;5.024;2023-02-21T13:27:19;101886.56;;;10.22;100.00
58955;BME280;45815;52.334;5.024;2023-02-21T13:29:48;101885.75;;;10.23;100.00
58955;BME280;45815;52.334;5.024;2023-02-21T13:32:17;101889.25;;;10.24;100.00
58955;BME280;45815;52.334;5.024;2023-02-21T13:34:54;101888.38;;;10.23;100.00
58955;BME280;45815;52.334;5.024;2023-02-21T13:37:26;101881.50;;;10.27;100.00
58955;BME280;45815;52.334;5.024;2023-02-21T13:39:56;101865.75;;;10.27;100.00
58955;BME280;45815;52.334;5.024;2023-02-21T13:42:28;101878.81;;;10.25;100.00
58955;BME280;45815;52.334;5.024;2023-02-21T13:45:14;101869.78;;;10.17;100.00
58955;BME280;45815;52.334;5.024;2023-02-21T13:53:18;101869.59;;;10.12;100.00
58955;BME280;45815;52.334;5.024;2023-02-21T14:03:55;101866.91;;;10.11;100.00
58955;BME280;45815;52.334;5.024;2023-02-21T14:06:35;101870.38;;;10.10;100.00
58955;BME280;45815;52.334;5.024;2023-02-21T14:09:27;101862.28;;;10.04;100.00
58955;BME280;45815;52.334;5.024;2023-02-21T14:11:52;101860.66;;;10.07;100.00
58955;BME280;45815;52.334;5.024;2023-02-21T14:14:26;101854.28;;;10.01;100.00
58955;BME280;45815;52.334;5.024;2023-02-21T14:19:33;101862.06;;;9.98;100.00
58955;BME280;45815;52.334;5.024;2023-02-21T14:24:42;101862.78;;;9.93;100.00
58955;BME280;45815;52.334;5.024;2023-02-21T14:34:41;101852.63;;;9.80;100.00
58955;BME280;45815;52.334;5.024;2023-02-21T14:54:08;101848.06;;;9.75;100.00
58955;BME280;45815;52.334;5.024;2023-02-21T15:05:30;101841.44;;;9.62;100.00
58955;BME280;45815;52.334;5.024;2023-02-21T15:08:14;101846.69;;;9.62;100.00
58955;BME280;45815;52.334;5.024;2023-02-21T15:10:43;101852.94;;;9.65;100.00
58955;BME280;45815;52.334;5.024;2023-02-21T15:15:55;101841.69;;;9.68;100.00
58955;BME280;45815;52.334;5.024;2023-02-21T15:18:35;101840.13;;;9.73;100.00
58955;BME280;45815;52.334;5.024;2023-02-21T15:21:06;101835.13;;;9.79;100.00
58955;BME280;45815;52.334;5.024;2023-02-21T15:23:33;101835.00;;;9.76;100.00
58955;BME280;45815;52.334;5.024;2023-02-21T15:26:15;101835.66;;;9.70;100.00
58955;BME280;45815;52.334;5.024;2023-02-21T15:28:41;101836.50;;;9.47;100.00
58955;BME280;45815;52.334;5.024;2023-02-21T15:31:08;101831.69;;;9.58;100.00
58955;BME280;45815;52.334;5.024;2023-02-21T15:33:36;101831.81;;;9.61;100.00
58955;BME280;45815;52.334;5.024;2023-02-21T15:36:14;101835.84;;;9.52;100.00
58955;BME280;45815;52.334;5.024;2023-02-21T15:39:02;101826.56;;;9.61;100.00
58955;BME280;45815;52.334;5.024;2023-02-21T15:41:37;101831.50;;;9.53;100.00
58955;BME280;45815;52.334;5.024;2023-02-21T15:44:10;101829.66;;;9.50;100.00
58955;BME280;45815;52.334;5.024;2023-02-21T15:46:49;101833.81;;;9.45;100.00
58955;BME280;45815;52.334;5.024;2023-02-21T15:49:37;101834.72;;;9.46;100.00
58955;BME280;45815;52.334;5.024;2023-02-21T15:52:04;101827.25;;;9.57;100.00
58955;BME280;45815;52.334;5.024;2023-02-21T15:54:35;101809.50;;;9.49;100.00